Time;durP1;ratioP1;P1;durP2;ratioP2;P2;SDS_P1;SDS_P2;PMS_P1;PMS_P2;Temp;Humidity;BMP_temperature;BMP_pressure;BME280_temperature;BME280_humidity;BME280_pressure;Samples;Min_cycle;Max_cycle;Signal;HPM_P1;HPM_P2
2022/07/10 00:00:07;;;;;;;;;;;;;;;32.73;25.29;102083.16;4412740;32;20358;-68
2022/07/10 00:02:33;;;;;;;;;;;;;;;32.87;25.14;102078.91;4415940;32;20133;-68
2022/07/10 00:04:58;;;;;;;;;;;;;;;32.80;25.12;102091.22;4413188;32;19961;-68
2022/07/10 00:07:24;;;;;;;;;;;;;;;32.98;24.86;102087.41;4413342;32;20470;-68
2022/07/10 00:09:49;;;;;;;;;;;;;;;32.91;25.11;102080.13;4413087;32;20011;-68
2022/07/10 00:12:15;;;;;;;;;;;;;;;32.52;25.55;102086.00;4413517;32;19992;-68
2022/07/10 00:14:40;;;;;;;;;;;;;;;32.65;25.36;102077.22;4412450;32;20263;-68
2022/07/10 00:17:06;;;;;;;;;;;;;;;32.53;25.61;102078.81;4401828;32;20020;-68
2022/07/10 00:19:32;;;;;;;;;;;;;;;32.61;25.49;102076.78;4410364;32;19991;-68
2022/07/10 00:21:57;;;;;;;;;;;;;;;32.45;25.67;102075.78;4413135;32;19991;-68
2022/07/10 00:24:23;;;;;;;;;;;;;;;32.50;25.71;102086.56;4413671;32;20036;-68
2022/07/10 00:26:49;;;;;;;;;;;;;;;32.41;25.70;102077.47;4412915;32;19968;-68
2022/07/10 00:29:15;;;;;;;;;;;;;;;32.50;25.63;102066.16;4414853;32;20024;-69
2022/07/10 00:31:42;;;;;;;;;;;;;;;32.36;25.78;102067.50;4415554;32;19998;-68
2022/07/10 00:34:07;;;;;;;;;;;;;;;32.22;25.98;102062.19;4413067;32;19992;-68
2022/07/10 00:36:32;;;;;;;;;;;;;;;32.11;26.12;102048.62;4413855;32;19965;-68
2022/07/10 00:39:01;;;;;;;;;;;;;;;32.19;26.01;102055.38;4411823;32;20058;-68
2022/07/10 00:41:26;;;;;;;;;;;;;;;32.14;26.06;102055.47;4416350;32;19989;-68
2022/07/10 00:43:57;;;;;;;;;;;;;;;32.14;26.07;102047.50;4415778;32;19969;-68
2022/07/10 00:46:23;;;;;;;;;;;;;;;32.21;26.06;102046.84;4410232;32;20380;-68
2022/07/10 00:48:49;;;;;;;;;;;;;;;31.93;26.44;102061.16;4413583;32;20016;-68
2022/07/10 00:51:15;;;;;;;;;;;;;;;31.82;26.57;102058.47;4416229;32;20377;-68
2022/07/10 00:53:42;;;;;;;;;;;;;;;31.82;26.59;102049.72;4416444;32;19985;-68
2022/07/10 00:56:08;;;;;;;;;;;;;;;31.71;26.76;102049.88;4413970;32;19984;-68
2022/07/10 00:58:34;;;;;;;;;;;;;;;31.83;26.64;102044.66;4413932;32;20039;-68
2022/07/10 01:01:01;;;;;;;;;;;;;;;31.81;26.70;102045.22;4400027;32;20379;-68
2022/07/10 01:03:26;;;;;;;;;;;;;;;31.65;26.95;102045.50;4414186;32;20343;-68
2022/07/10 01:05:52;;;;;;;;;;;;;;;31.50;27.32;102034.38;4416319;32;19980;-68
2022/07/10 01:08:17;;;;;;;;;;;;;;;31.66;26.85;102032.53;4414906;32;20366;-68
2022/07/10 01:10:43;;;;;;;;;;;;;;;31.76;26.84;102033.66;4417791;32;20396;-68
2022/07/10 01:13:09;;;;;;;;;;;;;;;31.60;27.07;102029.69;4413919;32;20012;-68
2022/07/10 01:15:36;;;;;;;;;;;;;;;31.63;27.02;102030.72;4417123;32;19988;-68
2022/07/10 01:18:02;;;;;;;;;;;;;;;30.96;27.91;102025.19;4412685;32;20008;-68
2022/07/10 01:20:32;;;;;;;;;;;;;;;31.27;27.45;102024.44;4415896;32;20286;-68
2022/07/10 01:22:57;;;;;;;;;;;;;;;31.33;27.49;102019.34;4416646;32;20422;-68
2022/07/10 01:25:23;;;;;;;;;;;;;;;31.35;27.48;102016.66;4417517;32;20034;-68
2022/07/10 01:27:48;;;;;;;;;;;;;;;31.22;27.54;102022.38;4414107;32;19961;-68
2022/07/10 01:30:13;;;;;;;;;;;;;;;31.33;27.39;102018.53;4415704;32;20362;-68
2022/07/10 01:32:40;;;;;;;;;;;;;;;31.27;27.49;102023.63;4415383;32;20346;-68
2022/07/10 01:35:06;;;;;;;;;;;;;;;31.03;27.80;102018.72;4417893;32;20005;-68
2022/07/10 01:37:32;;;;;;;;;;;;;;;30.99;27.87;102014.56;4416569;32;19961;-68
2022/07/10 01:39:57;;;;;;;;;;;;;;;30.98;27.89;102024.62;4416912;32;20093;-68
2022/07/10 01:42:22;;;;;;;;;;;;;;;30.91;28.05;102017.31;4416136;32;20416;-68
2022/07/10 01:44:48;;;;;;;;;;;;;;;30.99;27.97;102008.75;4416912;32;19969;-68
2022/07/10 01:47:13;;;;;;;;;;;;;;;30.80;28.06;102008.78;4414705;32;19995;-67
2022/07/10 01:49:39;;;;;;;;;;;;;;;30.83;28.00;102012.72;4420660;32;19967;-67
2022/07/10 01:52:04;;;;;;;;;;;;;;;30.59;28.42;102013.53;4417895;32;19986;-67
2022/07/10 01:54:30;;;;;;;;;;;;;;;30.70;28.19;102007.56;4415527;32;19990;-67
2022/07/10 01:56:56;;;;;;;;;;;;;;;30.78;28.21;102012.25;4412176;32;19989;-68
2022/07/10 01:59:21;;;;;;;;;;;;;;;30.76;28.26;102011.19;4417671;32;19957;-68
2022/07/10 02:01:47;;;;;;;;;;;;;;;30.75;28.21;102012.53;4415514;32;20237;-69
2022/07/10 02:04:43;;;;;;;;;;;;;;;30.61;28.35;102005.84;4418577;32;19964;-69
2022/07/10 02:06:57;;;;;;;;;;;;;;;30.58;28.52;102009.03;4419693;32;20004;-70
2022/07/10 02:09:24;;;;;;;;;;;;;;;30.74;28.41;102003.03;4416031;32;20072;-69
2022/07/10 02:11:49;;;;;;;;;;;;;;;30.83;28.22;102007.66;4414790;32;19991;-69
2022/07/10 02:14:15;;;;;;;;;;;;;;;30.72;28.35;101996.19;4415759;32;20012;-69
2022/07/10 02:16:40;;;;;;;;;;;;;;;30.65;28.30;102002.63;4416136;32;19949;-69
2022/07/10 02:19:06;;;;;;;;;;;;;;;30.51;28.54;102001.75;4419709;32;19964;-69
2022/07/10 02:21:31;;;;;;;;;;;;;;;30.62;28.25;101992.87;4418894;32;19993;-69
2022/07/10 02:23:58;;;;;;;;;;;;;;;30.59;28.13;101996.88;4417021;32;20006;-69
2022/07/10 02:26:23;;;;;;;;;;;;;;;30.61;28.31;102007.94;4415414;32;20200;-69
2022/07/10 02:28:48;;;;;;;;;;;;;;;30.48;28.51;101996.25;4420125;32;20427;-69
2022/07/10 02:31:14;;;;;;;;;;;;;;;30.65;28.21;102000.50;4418754;32;19985;-69
2022/07/10 02:33:39;;;;;;;;;;;;;;;30.63;28.24;101993.66;4417177;32;20033;-69
2022/07/10 02:36:05;;;;;;;;;;;;;;;30.47;28.52;101998.34;4420596;32;20019;-69
2022/07/10 02:38:31;;;;;;;;;;;;;;;30.52;28.40;101982.19;4418494;32;21184;-69
2022/07/10 02:40:56;;;;;;;;;;;;;;;30.43;28.49;101976.78;4417740;32;20016;-69
2022/07/10 02:43:22;;;;;;;;;;;;;;;30.20;28.76;101978.41;4416520;32;20337;-69
2022/07/10 02:45:48;;;;;;;;;;;;;;;30.21;28.80;101974.94;4419275;32;19965;-69
2022/07/10 02:48:15;;;;;;;;;;;;;;;30.19;28.64;101968.13;4419359;32;19989;-69
2022/07/10 02:50:41;;;;;;;;;;;;;;;30.13;28.65;101979.00;4419341;32;19993;-69
2022/07/10 02:53:06;;;;;;;;;;;;;;;29.93;29.14;101980.28;4416568;32;20008;-69
2022/07/10 02:55:32;;;;;;;;;;;;;;;29.97;29.02;101974.16;4417114;32;20001;-69
2022/07/10 02:57:59;;;;;;;;;;;;;;;29.86;29.16;101977.97;4419852;32;20048;-69
2022/07/10 03:00:25;;;;;;;;;;;;;;;29.96;28.99;101978.38;4418982;32;20338;-69
2022/07/10 03:02:52;;;;;;;;;;;;;;;30.05;28.72;101983.81;4417922;32;19996;-69
2022/07/10 03:05:17;;;;;;;;;;;;;;;29.79;28.93;101972.75;4417577;32;20027;-69
2022/07/10 03:07:43;;;;;;;;;;;;;;;29.74;29.17;101984.44;4420178;32;21123;-69
2022/07/10 03:10:09;;;;;;;;;;;;;;;30.04;28.90;101973.56;4416941;32;19994;-69
2022/07/10 03:12:34;;;;;;;;;;;;;;;29.60;29.33;101977.69;4416125;32;20352;-69
2022/07/10 03:15:00;;;;;;;;;;;;;;;30.10;28.83;101975.03;4417203;32;20023;-69
2022/07/10 03:17:26;;;;;;;;;;;;;;;29.89;29.06;101971.09;4414492;32;20253;-69
2022/07/10 03:19:51;;;;;;;;;;;;;;;29.85;29.21;101969.81;4416925;32;19976;-70
2022/07/10 03:22:17;;;;;;;;;;;;;;;29.83;29.28;101978.28;4417658;32;20037;-69
2022/07/10 03:24:46;;;;;;;;;;;;;;;29.37;29.75;101978.44;4414103;32;19953;-69
2022/07/10 03:27:13;;;;;;;;;;;;;;;29.46;29.71;101972.28;4416352;32;20345;-69
2022/07/10 03:29:38;;;;;;;;;;;;;;;29.27;29.90;101977.22;4415221;32;19957;-69
2022/07/10 03:32:05;;;;;;;;;;;;;;;29.00;30.34;101968.16;4417891;32;19988;-69
2022/07/10 03:34:30;;;;;;;;;;;;;;;29.37;29.53;101970.53;4415168;32;19999;-69
2022/07/10 03:36:55;;;;;;;;;;;;;;;29.32;29.62;101961.91;4418281;32;19973;-69
2022/07/10 03:39:22;;;;;;;;;;;;;;;29.49;29.28;101956.72;4416323;32;19989;-69
2022/07/10 03:41:47;;;;;;;;;;;;;;;29.75;29.11;101956.97;4417188;32;19953;-69
2022/07/10 03:44:12;;;;;;;;;;;;;;;29.51;29.22;101948.25;4417554;32;20037;-69
2022/07/10 03:46:39;;;;;;;;;;;;;;;29.66;29.10;101954.47;4416665;32;19983;-69
2022/07/10 03:49:04;;;;;;;;;;;;;;;29.59;29.20;101952.13;4415303;32;20037;-69
2022/07/10 03:51:30;;;;;;;;;;;;;;;29.54;29.30;101950.06;4416778;32;19950;-69
2022/07/10 03:53:56;;;;;;;;;;;;;;;29.90;28.73;101957.34;4419147;32;20011;-69
2022/07/10 03:59:07;;;;;;;;;;;;;;;29.45;29.38;101939.59;4415964;32;19969;-69
2022/07/10 04:01:33;;;;;;;;;;;;;;;29.59;29.05;101943.41;4416370;32;19993;-69
2022/07/10 04:03:58;;;;;;;;;;;;;;;29.82;28.80;101938.97;4415463;32;19992;-69
2022/07/10 04:06:24;;;;;;;;;;;;;;;30.02;28.49;101941.38;4415643;32;19961;-69
2022/07/10 04:08:50;;;;;;;;;;;;;;;29.96;28.45;101935.63;4416163;32;19993;-69
2022/07/10 04:11:15;;;;;;;;;;;;;;;29.84;28.37;101936.31;4419566;32;20009;-69
2022/07/10 04:13:41;;;;;;;;;;;;;;;29.68;28.78;101943.88;4416294;32;20321;-69
2022/07/10 04:16:07;;;;;;;;;;;;;;;29.77;28.74;101948.53;4417157;32;20290;-69
2022/07/10 04:18:32;;;;;;;;;;;;;;;29.82;28.63;101945.56;4413921;32;20359;-69
2022/07/10 04:20:57;;;;;;;;;;;;;;;29.88;28.63;101937.56;4415689;32;19964;-69
2022/07/10 04:23:23;;;;;;;;;;;;;;;29.77;28.64;101942.72;4413800;32;19993;-69
2022/07/10 04:25:48;;;;;;;;;;;;;;;29.75;28.68;101937.47;4412875;32;20035;-69
2022/07/10 04:28:14;;;;;;;;;;;;;;;30.04;28.42;101932.91;4413236;32;19957;-69
2022/07/10 04:30:39;;;;;;;;;;;;;;;29.95;28.08;101930.38;4415196;32;21215;-69
2022/07/10 04:33:05;;;;;;;;;;;;;;;29.68;28.98;101940.19;4416066;32;20025;-69
2022/07/10 04:35:30;;;;;;;;;;;;;;;30.00;28.43;101933.19;4413568;32;20386;-69
2022/07/10 04:37:57;;;;;;;;;;;;;;;29.88;28.56;101937.56;4416471;32;20421;-69
2022/07/10 04:40:22;;;;;;;;;;;;;;;29.98;28.47;101940.91;4420869;32;19986;-69
2022/07/10 04:42:48;;;;;;;;;;;;;;;29.98;28.42;101935.09;4419561;32;20325;-69
2022/07/10 04:45:13;;;;;;;;;;;;;;;30.17;28.20;101945.41;4417519;32;19997;-69
2022/07/10 04:47:39;;;;;;;;;;;;;;;30.30;28.06;101942.63;4414374;32;20514;-69
2022/07/10 04:50:04;;;;;;;;;;;;;;;30.04;28.59;101941.63;4417825;32;20444;-69
2022/07/10 04:52:30;;;;;;;;;;;;;;;30.24;28.30;101941.09;4420108;32;20063;-69
2022/07/10 04:54:55;;;;;;;;;;;;;;;30.27;28.15;101934.19;4419416;32;19993;-69
2022/07/10 04:57:21;;;;;;;;;;;;;;;30.10;28.25;101939.44;4418295;32;19965;-69
2022/07/10 04:59:46;;;;;;;;;;;;;;;30.23;28.36;101930.84;4419741;32;20013;-69
2022/07/10 05:02:12;;;;;;;;;;;;;;;30.48;28.01;101930.22;4416795;32;19957;-69
2022/07/10 05:04:37;;;;;;;;;;;;;;;30.63;27.81;101932.63;4418722;32;19994;-69
2022/07/10 05:07:03;;;;;;;;;;;;;;;30.74;27.72;101927.47;4417482;32;20474;-70
2022/07/10 05:09:28;;;;;;;;;;;;;;;30.73;27.57;101927.97;4418163;32;20306;-70
2022/07/10 05:11:54;;;;;;;;;;;;;;;30.71;27.32;101921.97;4418843;32;20387;-70
2022/07/10 05:14:19;;;;;;;;;;;;;;;30.98;27.27;101923.62;4417924;32;20425;-70
2022/07/10 05:16:45;;;;;;;;;;;;;;;31.02;27.19;101924.13;4417051;32;20012;-70
2022/07/10 05:19:10;;;;;;;;;;;;;;;31.13;26.89;101932.63;4417235;32;19950;-70
2022/07/10 05:21:36;;;;;;;;;;;;;;;31.29;26.87;101925.75;4417764;32;19972;-70
2022/07/10 05:24:01;;;;;;;;;;;;;;;31.37;26.77;101926.69;4418145;32;19997;-69
2022/07/10 05:26:27;;;;;;;;;;;;;;;31.34;26.70;101927.81;4415901;32;19949;-69
2022/07/10 05:28:52;;;;;;;;;;;;;;;31.56;26.46;101926.59;4418479;32;20390;-70
2022/07/10 05:31:18;;;;;;;;;;;;;;;31.74;26.29;101922.78;4417773;32;20686;-69
2022/07/10 05:33:43;;;;;;;;;;;;;;;31.67;26.47;101923.47;4418226;32;19981;-69
2022/07/10 05:36:10;;;;;;;;;;;;;;;31.81;26.33;101916.31;4417812;32;20618;-69
2022/07/10 05:38:35;;;;;;;;;;;;;;;31.95;26.25;101915.78;4417210;32;20037;-69
2022/07/10 05:41:01;;;;;;;;;;;;;;;32.15;25.83;101920.91;4420542;32;20017;-70
2022/07/10 05:43:26;;;;;;;;;;;;;;;32.05;26.07;101922.72;4423248;32;19985;-70
2022/07/10 05:45:51;;;;;;;;;;;;;;;32.28;25.89;101920.88;4419361;32;20000;-70
2022/07/10 05:48:19;;;;;;;;;;;;;;;32.09;26.05;101919.47;4417411;32;20000;-70
2022/07/10 05:50:44;;;;;;;;;;;;;;;32.25;25.92;101916.19;4419637;32;20043;-70
2022/07/10 05:53:10;;;;;;;;;;;;;;;32.64;25.34;101913.19;4420044;32;19993;-70
2022/07/10 05:55:35;;;;;;;;;;;;;;;32.63;25.35;101919.56;4417709;32;20005;-69
2022/07/10 05:58:01;;;;;;;;;;;;;;;32.67;25.01;101923.72;4416214;32;20003;-70
2022/07/10 06:00:26;;;;;;;;;;;;;;;32.61;25.35;101928.13;4418164;32;20272;-70
2022/07/10 06:02:52;;;;;;;;;;;;;;;32.65;25.13;101931.47;4417975;32;20012;-70
2022/07/10 06:05:17;;;;;;;;;;;;;;;32.86;24.76;101926.47;4417706;32;19958;-70
2022/07/10 06:07:43;;;;;;;;;;;;;;;32.95;24.61;101923.06;4408864;32;20004;-70
2022/07/10 06:10:08;;;;;;;;;;;;;;;32.99;24.71;101922.69;4419667;32;20037;-70
2022/07/10 06:12:34;;;;;;;;;;;;;;;33.20;24.48;101915.53;4420919;32;20011;-69
2022/07/10 06:14:59;;;;;;;;;;;;;;;33.28;24.45;101919.28;4421028;32;19997;-70
2022/07/10 06:17:25;;;;;;;;;;;;;;;33.38;24.29;101917.44;4406158;32;20041;-70
2022/07/10 06:19:50;;;;;;;;;;;;;;;33.48;23.96;101912.66;4418823;32;19941;-69
2022/07/10 06:22:31;;;;;;;;;;;;;;;33.46;23.88;101915.37;4420726;32;20040;-69
2022/07/10 06:24:57;;;;;;;;;;;;;;;33.62;23.66;101919.19;4419002;32;19962;-69
2022/07/10 06:27:23;;;;;;;;;;;;;;;33.90;23.50;101925.06;4419647;32;20008;-69
2022/07/10 06:29:48;;;;;;;;;;;;;;;33.98;23.26;101917.09;4420429;32;19996;-69
2022/07/10 06:32:14;;;;;;;;;;;;;;;33.97;23.38;101921.37;4419511;32;19997;-69
2022/07/10 06:34:39;;;;;;;;;;;;;;;34.03;23.14;101916.16;4419873;32;19992;-69
2022/07/10 06:37:05;;;;;;;;;;;;;;;34.06;23.13;101917.94;4420644;32;20385;-69
2022/07/10 06:39:33;;;;;;;;;;;;;;;34.35;22.96;101913.56;4417495;32;19971;-69
2022/07/10 06:42:00;;;;;;;;;;;;;;;34.33;22.85;101914.16;4419091;32;20271;-69
2022/07/10 06:44:25;;;;;;;;;;;;;;;34.43;22.79;101914.44;4416470;32;20004;-69
2022/07/10 06:49:36;;;;;;;;;;;;;;;34.70;22.20;101909.84;4416123;32;19981;-69
2022/07/10 06:52:02;;;;;;;;;;;;;;;34.76;22.14;101906.72;4421820;32;19958;-69
2022/07/10 06:54:27;;;;;;;;;;;;;;;34.55;22.35;101912.72;4415616;32;20000;-69
2022/07/10 06:56:53;;;;;;;;;;;;;;;34.82;22.09;101911.03;4418084;32;19945;-69
2022/07/10 06:59:19;;;;;;;;;;;;;;;34.76;22.18;101907.50;4417486;32;20017;-69
2022/07/10 07:01:44;;;;;;;;;;;;;;;35.10;21.62;101915.97;4416731;32;20321;-70
2022/07/10 07:04:09;;;;;;;;;;;;;;;35.14;21.54;101916.34;4415018;32;19996;-69
2022/07/10 07:06:35;;;;;;;;;;;;;;;35.31;21.64;101916.56;4414688;32;19996;-69
2022/07/10 07:09:00;;;;;;;;;;;;;;;35.29;21.47;101916.34;4413221;32;19979;-69
2022/07/10 07:11:26;;;;;;;;;;;;;;;35.44;21.45;101913.44;4416811;32;19993;-69
2022/07/10 07:13:51;;;;;;;;;;;;;;;35.53;21.38;101919.50;4413595;32;20375;-69
2022/07/10 07:16:19;;;;;;;;;;;;;;;35.51;21.20;101919.31;4418262;32;19996;-69
2022/07/10 07:18:52;;;;;;;;;;;;;;;35.78;21.08;101920.44;4416111;32;20001;-69
2022/07/10 07:24:04;;;;;;;;;;;;;;;35.96;20.84;101916.28;4415488;32;19993;-70
2022/07/10 07:26:29;;;;;;;;;;;;;;;36.37;20.43;101914.22;4416888;32;20003;-70
2022/07/10 07:28:55;;;;;;;;;;;;;;;36.19;20.47;101916.22;4415971;32;20432;-69
2022/07/10 07:31:20;;;;;;;;;;;;;;;36.24;20.55;101921.09;4416047;32;19949;-69
2022/07/10 07:33:46;;;;;;;;;;;;;;;36.42;20.33;101910.28;4419402;32;20013;-69
2022/07/10 07:36:12;;;;;;;;;;;;;;;36.47;20.36;101915.16;4414729;32;19954;-69
2022/07/10 07:38:37;;;;;;;;;;;;;;;36.66;20.01;101907.44;4413652;32;20373;-69
2022/07/10 07:41:03;;;;;;;;;;;;;;;36.48;19.93;101910.84;4414187;32;20013;-69
2022/07/10 07:43:28;;;;;;;;;;;;;;;36.60;19.89;101909.03;4413986;32;20363;-69
2022/07/10 07:45:54;;;;;;;;;;;;;;;36.63;19.22;101910.78;4414592;32;19953;-69
2022/07/10 07:48:19;;;;;;;;;;;;;;;36.73;18.99;101912.47;4412543;32;20011;-69
2022/07/10 07:50:44;;;;;;;;;;;;;;;36.66;18.96;101894.91;4415264;32;20009;-70
2022/07/10 07:53:11;;;;;;;;;;;;;;;36.88;18.88;101899.88;4415884;32;19987;-69
2022/07/10 07:55:37;;;;;;;;;;;;;;;36.99;18.69;101897.25;4412656;32;19967;-70
2022/07/10 07:58:03;;;;;;;;;;;;;;;37.23;18.42;101902.38;4414220;32;19957;-69
2022/07/10 08:00:29;;;;;;;;;;;;;;;37.10;18.73;101896.78;4415430;32;19969;-69
2022/07/10 08:02:55;;;;;;;;;;;;;;;37.49;18.28;101901.72;4415338;32;19964;-69
2022/07/10 08:05:23;;;;;;;;;;;;;;;37.43;18.26;101900.44;4418280;32;19989;-69
2022/07/10 08:07:51;;;;;;;;;;;;;;;37.70;18.14;101898.44;4414482;32;20312;-69
2022/07/10 08:10:17;;;;;;;;;;;;;;;37.49;18.09;101895.09;4415263;32;20068;-69
2022/07/10 08:12:43;;;;;;;;;;;;;;;37.51;17.90;101901.91;4411129;32;20004;-69
2022/07/10 08:15:09;;;;;;;;;;;;;;;37.83;17.80;101892.22;4419098;32;19954;-69
2022/07/10 08:17:35;;;;;;;;;;;;;;;38.05;17.53;101897.03;4416313;32;19957;-70
2022/07/10 08:20:01;;;;;;;;;;;;;;;37.97;17.60;101895.59;4420282;32;20029;-69
2022/07/10 08:22:27;;;;;;;;;;;;;;;38.05;17.44;101897.03;4419274;32;20051;-69
2022/07/10 08:24:52;;;;;;;;;;;;;;;38.09;17.40;101891.53;4416872;32;20089;-69
2022/07/10 08:27:18;;;;;;;;;;;;;;;38.11;17.46;101890.91;4417358;32;20822;-69
2022/07/10 08:29:43;;;;;;;;;;;;;;;38.21;17.38;101892.53;4418202;32;19976;-69
2022/07/10 08:32:10;;;;;;;;;;;;;;;38.19;17.24;101891.59;4418437;32;19954;-69
2022/07/10 08:34:36;;;;;;;;;;;;;;;38.42;17.07;101895.00;4418546;32;20002;-69
2022/07/10 08:37:02;;;;;;;;;;;;;;;38.71;16.73;101890.87;4412623;32;20396;-69
2022/07/10 08:39:27;;;;;;;;;;;;;;;38.59;16.88;101889.88;4416989;32;19949;-69
2022/07/10 08:41:53;;;;;;;;;;;;;;;38.53;16.92;101889.38;4418728;32;19997;-69
2022/07/10 08:44:19;;;;;;;;;;;;;;;38.59;16.83;101881.06;4420313;32;19972;-69
2022/07/10 08:46:44;;;;;;;;;;;;;;;38.93;16.62;101883.84;4414247;32;20330;-70
2022/07/10 08:49:13;;;;;;;;;;;;;;;38.52;16.82;101881.91;4415891;32;20358;-70
2022/07/10 08:51:59;;;;;;;;;;;;;;;38.80;16.53;101878.38;4419090;32;20031;-70
2022/07/10 08:54:27;;;;;;;;;;;;;;;38.56;16.68;101885.22;4415760;32;20446;-69
2022/07/10 08:56:52;;;;;;;;;;;;;;;39.24;16.21;101873.16;4406409;32;20387;-69
2022/07/10 08:59:19;;;;;;;;;;;;;;;39.39;15.99;101881.75;4415927;32;19949;-69
2022/07/10 09:01:44;;;;;;;;;;;;;;;39.68;15.84;101879.66;4417508;32;19958;-69
2022/07/10 09:04:19;;;;;;;;;;;;;;;40.06;15.47;101873.00;4416615;32;20008;-70
2022/07/10 09:06:44;;;;;;;;;;;;;;;40.31;15.34;101869.75;4419201;32;19961;-70
2022/07/10 09:09:11;;;;;;;;;;;;;;;40.97;14.87;101868.78;4419586;32;20363;-70
2022/07/10 09:11:40;;;;;;;;;;;;;;;40.93;14.94;101862.59;4418252;32;19993;-69
2022/07/10 09:14:08;;;;;;;;;;;;;;;41.10;14.88;101863.16;4420365;32;20370;-71
2022/07/10 09:16:34;;;;;;;;;;;;;;;41.40;14.70;101861.56;4417793;32;19965;-70
2022/07/10 09:19:19;;;;;;;;;;;;;;;40.82;14.99;101858.13;4416388;32;19969;-70
2022/07/10 09:21:46;;;;;;;;;;;;;;;41.47;14.66;101851.72;4419064;32;19981;-69
2022/07/10 09:24:11;;;;;;;;;;;;;;;41.97;14.26;101855.28;4417929;32;19970;-69
2022/07/10 09:26:38;;;;;;;;;;;;;;;42.56;13.96;101859.97;4416745;32;19953;-69
2022/07/10 09:29:11;;;;;;;;;;;;;;;42.75;14.15;101857.59;4420521;32;19993;-70
2022/07/10 09:31:57;;;;;;;;;;;;;;;42.66;14.22;101855.47;4419366;32;20007;-69
2022/07/10 09:34:42;;;;;;;;;;;;;;;42.70;14.36;101852.81;4416598;32;20056;-69
2022/07/10 09:42:36;;;;;;;;;;;;;;;43.39;13.96;101849.09;3961740;31;15715803;-71
2022/07/10 09:45:17;;;;;;;;;;;;;;;43.39;13.96;101849.09;4436432;32;20035;-70
2022/07/10 09:47:53;;;;;;;;;;;;;;;43.46;13.81;101850.25;4435293;32;20003;-69
2022/07/10 09:50:21;;;;;;;;;;;;;;;43.64;13.63;101849.16;4437618;32;20043;-70
2022/07/10 09:52:49;;;;;;;;;;;;;;;43.95;13.32;101848.84;4437821;32;19980;-70
2022/07/10 09:55:15;;;;;;;;;;;;;;;44.56;12.95;101850.97;4436496;32;20201;-70
2022/07/10 09:57:43;;;;;;;;;;;;;;;44.57;12.94;101850.31;4434223;32;20253;-70
2022/07/10 10:00:11;;;;;;;;;;;;;;;44.68;13.02;101857.63;4435926;32;19988;-70
2022/07/10 10:02:38;;;;;;;;;;;;;;;44.66;12.94;101854.56;4437864;32;20009;-69
2022/07/10 10:05:04;;;;;;;;;;;;;;;44.81;12.90;101839.81;4438947;32;19968;-70
2022/07/10 10:07:30;;;;;;;;;;;;;;;44.60;13.08;101849.00;4436036;32;19988;-70
2022/07/10 10:09:58;;;;;;;;;;;;;;;44.17;13.45;101838.28;4435679;32;20357;-69
2022/07/10 10:12:31;;;;;;;;;;;;;;;44.53;13.25;101844.16;4435172;32;20361;-70
2022/07/10 10:14:58;;;;;;;;;;;;;;;44.68;13.16;101837.63;4436577;32;19949;-70
2022/07/10 10:17:25;;;;;;;;;;;;;;;45.04;12.97;101838.09;4432992;32;19961;-70
2022/07/10 10:22:40;;;;;;;;;;;;;;;45.82;12.29;101831.22;4435452;32;19973;-70
2022/07/10 10:25:07;;;;;;;;;;;;;;;45.95;12.23;101827.44;4435225;32;19989;-70
2022/07/10 10:27:32;;;;;;;;;;;;;;;46.43;11.95;101835.06;4434621;32;19980;-70
2022/07/10 10:29:59;;;;;;;;;;;;;;;46.53;11.77;101833.37;4436759;32;19953;-70
2022/07/10 10:32:27;;;;;;;;;;;;;;;46.13;12.05;101836.56;4437693;32;20352;-70
2022/07/10 10:34:56;;;;;;;;;;;;;;;46.61;11.64;101826.25;4436257;32;20060;-70
2022/07/10 10:40:06;;;;;;;;;;;;;;;47.83;10.90;101820.78;3952515;32;15725597;-70
2022/07/10 10:42:34;;;;;;;;;;;;;;;47.83;10.90;101820.78;4426566;32;19997;-70
2022/07/10 10:45:19;;;;;;;;;;;;;;;47.13;11.29;101819.81;4429261;32;19992;-70
2022/07/10 10:48:08;;;;;;;;;;;;;;;47.79;10.90;101810.91;4430553;32;19968;-69
2022/07/10 10:58:44;;;;;;;;;;;;;;;47.43;11.16;101797.34;3951661;32;15728660;-70
2022/07/10 11:01:26;;;;;;;;;;;;;;;46.86;11.52;101796.97;4427278;32;20422;-71
2022/07/10 11:04:12;;;;;;;;;;;;;;;46.65;11.66;101794.44;4426613;32;20013;-71
2022/07/10 11:09:32;;;;;;;;;;;;;;;47.48;11.37;101799.44;3954189;32;15723530;-70
2022/07/10 11:12:12;;;;;;;;;;;;;;;47.50;11.38;101799.13;4429654;32;19960;-69
2022/07/10 11:14:39;;;;;;;;;;;;;;;47.12;11.43;101797.41;4428036;32;20027;-70
2022/07/10 11:17:05;;;;;;;;;;;;;;;47.49;11.23;101789.44;4429701;32;19957;-70
2022/07/10 11:19:31;;;;;;;;;;;;;;;47.50;11.28;101790.97;4429919;32;20016;-70
2022/07/10 11:24:42;;;;;;;;;;;;;;;49.23;9.99;101781.41;3953883;32;15722611;-70
2022/07/10 11:27:15;;;;;;;;;;;;;;;49.23;10.00;101780.88;4427402;32;19995;-70
2022/07/10 11:29:41;;;;;;;;;;;;;;;49.19;10.01;101779.94;4429060;32;20398;-71
2022/07/10 11:32:07;;;;;;;;;;;;;;;50.33;9.44;101769.00;4427874;32;19984;-71
2022/07/10 11:34:34;;;;;;;;;;;;;;;50.30;9.38;101784.59;4432710;32;19994;-71
2022/07/10 11:37:00;;;;;;;;;;;;;;;50.60;9.17;101785.56;4428197;32;20004;-70
2022/07/10 11:39:26;;;;;;;;;;;;;;;50.96;8.92;101774.66;4430588;32;20376;-70
2022/07/10 11:41:52;;;;;;;;;;;;;;;49.02;9.78;101768.87;4428662;32;19961;-70
2022/07/10 11:44:20;;;;;;;;;;;;;;;50.79;9.16;101778.66;4429158;32;19961;-70
2022/07/10 11:46:48;;;;;;;;;;;;;;;50.64;9.24;101770.72;4430419;32;19975;-69
2022/07/10 11:49:14;;;;;;;;;;;;;;;51.28;8.81;101779.34;4426796;32;20020;-71
2022/07/10 11:51:40;;;;;;;;;;;;;;;52.00;8.41;101777.56;4430804;32;19953;-71
2022/07/10 11:56:52;;;;;;;;;;;;;;;51.92;8.78;101776.56;3952879;32;15722641;-70
2022/07/10 11:59:19;;;;;;;;;;;;;;;51.92;8.78;101776.56;4434850;32;19995;-70
2022/07/10 12:01:46;;;;;;;;;;;;;;;52.20;8.42;101763.00;4432834;32;20004;-70
2022/07/10 12:04:12;;;;;;;;;;;;;;;53.16;8.17;101773.41;4429928;32;19958;-70
2022/07/10 12:06:39;;;;;;;;;;;;;;;53.41;8.09;101771.63;4431869;32;19966;-70
2022/07/10 12:09:06;;;;;;;;;;;;;;;53.57;7.98;101769.69;4431769;32;19953;-70
2022/07/10 12:11:32;;;;;;;;;;;;;;;54.03;7.78;101760.66;4436277;32;19972;-70
2022/07/10 12:16:51;;;;;;;;;;;;;;;54.43;7.66;101753.00;3952320;32;15723514;-70
2022/07/10 12:19:19;;;;;;;;;;;;;;;54.43;7.66;101753.00;4434930;32;19950;-70
2022/07/10 12:21:45;;;;;;;;;;;;;;;51.66;9.07;101758.66;4434813;32;20162;-70
2022/07/10 12:24:12;;;;;;;;;;;;;;;52.06;8.90;101753.66;4436356;32;20033;-70
2022/07/10 12:26:38;;;;;;;;;;;;;;;52.89;8.44;101751.03;4436981;32;19968;-70
2022/07/10 12:29:05;;;;;;;;;;;;;;;52.95;8.43;101747.41;4435523;32;19961;-71
2022/07/10 12:31:33;;;;;;;;;;;;;;;53.26;8.39;101752.53;4434097;32;19980;-70
2022/07/10 12:34:02;;;;;;;;;;;;;;;52.65;8.75;101743.75;4436242;32;20023;-70
2022/07/10 12:36:47;;;;;;;;;;;;;;;52.99;8.63;101744.47;4433223;32;20017;-70
2022/07/10 12:39:14;;;;;;;;;;;;;;;53.45;8.51;101738.59;4433846;32;20637;-70
2022/07/10 12:44:32;;;;;;;;;;;;;;;52.99;8.78;101742.22;3951782;32;15722554;-70
2022/07/10 12:47:02;;;;;;;;;;;;;;;52.99;8.78;101742.22;4431560;32;20049;-70
2022/07/10 12:49:28;;;;;;;;;;;;;;;51.19;9.60;101738.59;4429775;32;20366;-70
2022/07/10 12:51:53;;;;;;;;;;;;;;;51.24;9.65;101734.25;4428544;32;20357;-71
2022/07/10 12:54:35;;;;;;;;;;;;;;;51.69;9.36;101741.44;4429231;32;20414;-71
2022/07/10 12:57:01;;;;;;;;;;;;;;;50.76;9.83;101732.13;4428968;32;20012;-71
2022/07/10 12:59:28;;;;;;;;;;;;;;;51.43;9.42;101727.28;4431446;32;20340;-70
2022/07/10 13:01:55;;;;;;;;;;;;;;;52.52;8.90;101730.69;4429720;32;20013;-71
2022/07/10 13:04:23;;;;;;;;;;;;;;;52.64;8.81;101737.00;4429943;32;19998;-71
2022/07/10 13:06:48;;;;;;;;;;;;;;;52.76;8.67;101733.47;4429397;32;20016;-71
2022/07/10 13:09:18;;;;;;;;;;;;;;;52.69;8.64;101732.56;4429212;32;19958;-70
2022/07/10 13:11:43;;;;;;;;;;;;;;;53.48;8.20;101731.13;4428492;32;20027;-70
2022/07/10 13:14:09;;;;;;;;;;;;;;;52.86;8.58;101736.66;4431037;32;20000;-71
2022/07/10 13:16:35;;;;;;;;;;;;;;;52.58;8.70;101724.03;4430491;32;20123;-70